x

8551762 - Delaware City, De (deld1) Weather Station

9:30am - Thu 5th Mar 2015 All times are EST. -5 hours from GMT.

  • Wind
    10mph, 13mph gusts
  • Sea Temp 35°f
  • Air Temp 31°f
  • Sea Pressure 1019.5mb
  • 8551762 - Delaware City, De
  • 8551762 - Delaware City, De

More Historic Weather Station data

Upgrade to MSW Pro to gain access to the past 30 days of data for over 8000 Wavebouys and Weather Stations around the globe.

Join Pro

Comparision Forecast

View Surf forecast
   
Thu 03/05 9:30am 10 13 mph 1019.5mb 35f 31f
9:24am 8 13 mph 1019.7mb 35f 32f
9:18am 9 14 mph 1020mb 35f 32f
9:12am 8 13 mph 1020.1mb 35f 32f
9:06am 9 14 mph 1019.9mb 35f 31f
9:00am 11 16 mph 1019.9mb 35f 32f
8:54am 13 16 mph 1019.9mb 35f 32f
8:48am 11 14 mph 1019.7mb 35f 32f
8:42am 9 14 mph 1019.6mb 35f 32f
8:36am 10 17 mph 1019.6mb 35f 32f
8:30am 15 18 mph 1019.4mb 35f 32f
8:24am 14 18 mph 1019.2mb 35f 32f
8:18am 16 20 mph 1019.1mb 35f 32f
8:12am 11 15 mph 1019.1mb 35f 32f
8:06am 9 11 mph 1019.2mb 35f 33f
8:00am 10 13 mph 1018.8mb 35f 33f
7:54am 9 13 mph 1018.2mb 35f 33f
7:48am 9 13 mph 1018.2mb 35f 33f
7:42am 8 10 mph 1018.2mb 35f 33f
7:36am 8 9 mph 1018.3mb 36f 33f
7:30am 5 8 mph 1018mb 36f 33f
7:24am 6 9 mph 1017.6mb 36f 34f
7:18am 7 13 mph 1017.6mb 36f 34f
7:12am 9 14 mph 1017.4mb 35f 34f
7:06am 8 11 mph 1017.5mb 35f 34f
7:00am 8 13 mph 1017.3mb 35f 34f
6:54am 7 13 mph 1017.1mb 35f 34f
6:48am 8 13 mph 1017.2mb 35f 34f
6:42am 10 14 mph 1017.7mb 36f 34f
6:36am 10 13 mph 1017.7mb 37f 34f
6:30am 9 11 mph 1017.3mb 37f 34f
6:24am 9 13 mph 1017.2mb 37f 35f
6:18am 10 13 mph 1017.3mb 37f 35f
6:12am 8 10 mph 1017mb 37f 35f
6:06am 7 10 mph 1017mb 37f 35f
6:00am 9 11 mph 1017.1mb 37f 35f
5:54am 9 11 mph 1017.1mb 37f 34f
5:48am 8 10 mph 1017mb 37f 34f
5:42am 6 8 mph 1016.6mb 37f 34f
5:36am 7 10 mph 1016.2mb 37f 34f
5:30am 8 9 mph 1016.7mb 37f 35f
5:24am 7 10 mph 1016.6mb 37f 35f
5:18am 9 11 mph 1016.8mb 36f 35f
5:12am 8 11 mph 1016.7mb 37f 35f
5:06am 9 16 mph 1016.6mb 37f 35f
5:00am 13 16 mph 1016.7mb - 36f
4:54am 11 16 mph 1016.7mb - 36f
4:48am  -  mph 1016.3mb - -
4:42am  -  mph 1016mb - -
4:36am  -  mph 1015.8mb - -
4:30am 10 15 mph 1015.7mb 37f 37f
4:24am 10 14 mph 1015.3mb 36f 37f
4:18am 11 13 mph 1015.1mb 36f 37f
4:12am 10 14 mph 1014.7mb 36f 37f
4:06am 11 17 mph 1014.9mb 36f 37f
4:00am 9 13 mph 1014.8mb 36f 37f
3:54am 9 11 mph 1014.7mb 36f 37f
3:48am 10 14 mph - 36f 37f
3:42am 7 13 mph - 36f 37f
3:36am 8 10 mph - 37f 37f
3:30am 7 10 mph 1015mb 37f 37f
3:24am 6 9 mph 1014.9mb 36f 37f
3:18am 6 9 mph 1014.8mb 35f 37f
3:12am 5 8 mph 1014.7mb 35f 37f
3:06am 6 8 mph 1014.8mb 35f 37f
3:00am 6 8 mph 1014.8mb 35f 37f
2:54am 6 7 mph 1014.7mb 35f 37f
2:48am 5 6 mph 1014.4mb 35f 37f
2:42am 5 6 mph 1014.4mb 35f 38f
2:36am 5 7 mph 1014.5mb 35f 38f
2:30am 6 8 mph 1014.7mb 35f 38f
2:24am 6 8 mph 1014.9mb 35f 38f
2:18am 6 8 mph 1015mb - 38f
2:12am 6 7 mph 1015.1mb - 38f
2:06am 7 9 mph 1014.9mb - 38f
2:00am 6 8 mph - 35f 38f
1:54am 6 8 mph - 35f 38f
1:48am 5 7 mph 1014.7mb 35f 38f
1:42am 6 7 mph 1014.5mb 35f 38f
1:36am 6 7 mph 1014.3mb 35f 39f
1:30am 6 8 mph 1014.1mb 35f 39f
1:24am 6 8 mph 1014.1mb 35f 39f
1:18am 6 8 mph 1014.2mb 35f 39f
1:12am 6 8 mph 1014mb 35f 39f
1:06am 6 8 mph 1014.3mb 35f 39f
1:00am 6 7 mph 1014.3mb 35f 39f
12:54am 6 8 mph 1014.5mb 35f 39f
12:48am 7 9 mph 1014.2mb 35f 39f
12:42am 8 10 mph 1014.3mb 35f 39f
12:36am 8 10 mph 1014mb 35f 39f
12:30am 8 11 mph 1014mb 35f 39f
12:24am 8 11 mph 1013.9mb 35f 39f
12:18am 8 10 mph 1014mb 35f 39f
12:12am 8 11 mph 1014.1mb 35f 40f
12:06am 8 10 mph 1013.9mb 35f 40f
12:00am 6 10 mph 1013.7mb 35f 40f
Wed 03/04 11:54pm 7 10 mph 1013.7mb 35f 40f
11:48pm 6 10 mph 1013.7mb 35f 40f
11:42pm 7 10 mph 1013.7mb 34f 41f
11:36pm 6 9 mph 1014mb 34f 41f
11:30pm 6 8 mph 1014.1mb 34f 40f
11:24pm 8 11 mph 1014.1mb 34f 41f
11:18pm 7 9 mph 1014.3mb 34f 41f
11:12pm 6 9 mph 1014.2mb 34f 40f
11:06pm 6 8 mph 1014.2mb 34f 40f
11:00pm 6 7 mph 1013.8mb 34f 41f
10:54pm 3 6 mph 1014mb 34f 40f
10:48pm 5 7 mph 1014mb 34f 40f
10:42pm 6 7 mph 1013.9mb 34f 40f
10:36pm 6 7 mph 1014.1mb 34f 39f
10:30pm 5 6 mph 1013.9mb 35f 40f
10:24pm 3 6 mph 1013.9mb 35f 40f
10:18pm 5 6 mph 1013.9mb 35f 40f
10:12pm 5 6 mph 1014mb 35f 40f
10:06pm 3 5 mph 1013.8mb 35f 40f
10:00pm 2
mph
1013.8mb 35f 40f
9:54pm  -  1 mph 1013.6mb 35f 40f
9:48pm 1 2 mph 1013.6mb 35f 40f
9:42pm 3 5 mph 1013.5mb 35f 40f
9:36pm 5 6 mph 1013.6mb 35f 40f
9:30pm 3 6 mph 1013.8mb 35f 40f
9:24pm 5 7 mph 1014mb 35f 41f
9:18pm 6 7 mph 1014.2mb 35f 41f
9:12pm 3 5 mph 1014.1mb 35f 40f
9:06pm 2 3 mph 1013.6mb 35f 40f
9:00pm 2
mph
1013.6mb 35f 40f
8:54pm 2 3 mph 1013.1mb 35f 40f
8:48pm 2 3 mph 1013.1mb 35f 40f
8:42pm 1 3 mph 1013.6mb 35f 40f
8:36pm 2 3 mph 1014.1mb 35f 39f
8:30pm 5
mph
1013.8mb 35f 39f
8:24pm 3
mph
1013.6mb 35f 38f
8:18pm 1 5 mph 1013.4mb 35f 38f
8:12pm 3 5 mph 1013.2mb 35f 37f
8:06pm 2 3 mph 1012.8mb 35f 37f
8:00pm 3 6 mph 1012.8mb 35f 37f
7:54pm 3 5 mph 1012.8mb 35f 38f
7:48pm 3 5 mph 1012.6mb 35f 39f
7:42pm 3 5 mph 1012.5mb 35f 40f
7:36pm  -  mph 1012.2mb 35f 40f
7:30pm  -  2 mph 1012mb 35f 40f
7:24pm 2 3 mph 1012mb 35f 41f
7:18pm 2 3 mph 1012.2mb 35f 41f
7:12pm 2 3 mph 1012.1mb 35f 40f
7:06pm 2 3 mph 1012mb 35f 40f
7:00pm 2 5 mph 1012mb 35f 40f
6:54pm 3 5 mph 1012.1mb 35f 41f
6:48pm 1 2 mph 1012.4mb 35f 41f
6:42pm 2 3 mph 1012.7mb 35f 41f
6:36pm 2 3 mph 1012.4mb 36f 41f
6:30pm 3 5 mph 1012.4mb 36f 41f
6:24pm 3 5 mph 1012.4mb 36f 41f
6:18pm 3 5 mph 1012.4mb 36f 41f
6:12pm 2 3 mph 1012.6mb 36f 41f
6:06pm 2 3 mph 1012.6mb 37f 41f
6:00pm 3 5 mph 1012.6mb 37f 40f
5:54pm 1 2 mph 1012.6mb 37f 40f
5:48pm  -  2 mph 1012.8mb 37f 40f
5:42pm 1 2 mph 1012.9mb 37f 40f
5:36pm 1 2 mph 1012.8mb 37f 41f
5:30pm  -  1 mph 1012.8mb 37f 41f
5:24pm  -  2 mph 1012.7mb 37f 41f
5:18pm 1 2 mph 1012.6mb 37f 41f
5:12pm  -  2 mph 1012.5mb 37f 41f
5:06pm 1 3 mph 1012.5mb 37f 41f
5:00pm 1 2 mph 1012.5mb 37f 40f
4:54pm 2
mph
1012.3mb 37f 40f
4:48pm 2
mph
1012.3mb 36f 40f
4:42pm  -  2 mph 1012.4mb 36f 40f
4:36pm 1 2 mph 1012.1mb 36f 41f
4:30pm 2
mph
1012.1mb 36f 41f
4:24pm 1
mph
1012.3mb 37f 41f
4:18pm  -  mph 1012.5mb 37f 41f
4:12pm  -  mph 1012.6mb 37f 41f
4:06pm  -  3 mph 1012.5mb 37f 40f
4:00pm 2 5 mph 1012.2mb 37f 41f
3:54pm 5 6 mph 1012.4mb 37f 40f
3:48pm 5 6 mph 1012.6mb 37f 40f
3:42pm 5 6 mph 1012.6mb 37f 40f
3:36pm 3 6 mph 1012.8mb 37f 39f
3:30pm 6
mph
1012.8mb 36f 40f
3:24pm 5 6 mph 1012.9mb 35f 42f
3:18pm 5
mph
1012.9mb 35f 42f
3:12pm 3 5 mph 1012.8mb 34f 42f
3:06pm 3 5 mph 1012.8mb 34f 42f
3:00pm 1 3 mph 1012.4mb 34f 42f
2:54pm 2 5 mph 1012.3mb 34f 43f
2:48pm 2 5 mph 1012.3mb 34f 43f
2:42pm 2 5 mph 1012.2mb 34f 43f
2:36pm 3 6 mph 1011.9mb 34f 43f
2:30pm 2 5 mph 1011.8mb 34f 43f
2:24pm 2 3 mph 1011.8mb 34f 43f
2:18pm 2 5 mph 1011.5mb 34f 42f
2:12pm 3 5 mph 1011.7mb 34f 43f
2:06pm 3 5 mph 1011.5mb 34f 43f
2:00pm 2 5 mph 1011.5mb 34f 43f
1:54pm  -  3 mph 1011.7mb 34f 43f
1:48pm 3 6 mph 1011.7mb 34f 43f
1:42pm 5 7 mph 1011.5mb 34f 43f
1:36pm 2 5 mph 1011.6mb 34f 43f
1:30pm 3 5 mph 1011.4mb 34f 43f
1:24pm 2 7 mph 1011.5mb 34f 43f
1:18pm 5 8 mph 1011.7mb 34f 43f
1:12pm 3 9 mph 1011.3mb 34f 43f
1:06pm 6 8 mph 1011.4mb 34f 43f
1:00pm 2 6 mph 1011.6mb 34f 43f
12:54pm 5 7 mph 1011.8mb 34f 43f
12:48pm 5 7 mph 1011.9mb 34f 42f
12:42pm 6 8 mph 1011.8mb 34f 42f
12:36pm 5 8 mph 1011.9mb 34f 42f
12:30pm 5 7 mph 1012.1mb 34f 42f
12:24pm 2 5 mph 1012mb 34f 42f
12:18pm 2 6 mph 1012.2mb 34f -
12:12pm 2 8 mph 1012.3mb 34f -
12:06pm 5 7 mph 1012.4mb 34f -
12:00pm 6 8 mph 1012.3mb 34f 41f
11:54am 5 8 mph 1012.3mb 34f 41f
11:48am 5 8 mph 1012.5mb 34f 41f
11:42am 5 10 mph 1012.5mb 34f 41f
11:36am 6 9 mph 1012.8mb 34f 41f
11:30am 5 7 mph 1012.9mb 34f 40f
11:24am 5 7 mph 1012.9mb 34f 40f
11:18am 5 7 mph 1013.1mb 34f 40f
11:12am 2 7 mph 1013mb 34f 40f
11:06am 2 5 mph 1013.1mb 34f 40f
11:00am 2 7 mph 1012.7mb 34f 40f
10:54am 3 6 mph 1012.7mb 34f 40f
10:48am 3 6 mph 1012.8mb 34f 40f
10:42am 3 6 mph 1013.1mb 34f 40f
10:36am 5 7 mph 1013.2mb 34f 40f
10:30am 5 7 mph 1013.3mb 34f 40f
10:24am 6 8 mph 1013.2mb 34f 40f
10:18am 5 6 mph 1012.9mb 34f 40f
10:12am 3 7 mph 1013mb 34f 40f
10:06am 5 7 mph 1013.4mb 34f 40f
10:00am 5 11 mph 1013.4mb 34f 40f
9:54am 3 6 mph 1012.9mb 34f 40f
9:48am 3 6 mph 1012.7mb 34f 40f
9:42am 2 6 mph 1013mb 34f 39f
9:36am 3 6 mph 1013mb 34f 39f
9:30am 3 7 mph 1013.3mb 34f 39f
9:24am 5 9 mph 1013.4mb 34f 38f
9:18am 3 5 mph 1013.1mb 34f 38f
9:12am 2 5 mph 1013mb 34f 38f
9:06am 2 3 mph 1013mb 34f 38f
9:00am 2 3 mph 1013.2mb 34f 38f
8:54am 2
mph
1013mb 34f 38f
8:48am  -  2 mph 1012.8mb 34f 38f
8:42am 1 3 mph 1012.9mb 34f 38f
8:36am 2 6 mph 1012.9mb 34f 38f
8:30am 1 3 mph 1012.9mb 34f 37f
8:24am 2 3 mph 1012.7mb 34f 37f
8:18am 2 3 mph 1012.7mb 34f 37f
8:12am 2 5 mph 1012.6mb 34f 37f
8:06am 2 3 mph 1012.6mb 34f 37f
8:00am 1 2 mph 1012.7mb 34f 37f
7:54am 1 2 mph 1012.6mb 34f 37f
7:48am 2 5 mph 1012.5mb 34f 37f
7:42am 3
mph
1012.5mb 34f 36f
7:36am 2 5 mph 1012.6mb 35f 36f
7:30am 2 3 mph 1012.5mb 35f 36f
7:24am 2 3 mph 1012.2mb 35f 36f
7:18am 2 3 mph 1012.1mb 35f 36f
7:12am 2 3 mph 1011.8mb 35f 36f
7:06am  -  3 mph 1011.6mb 35f 36f
7:00am 2 5 mph 1011.7mb 35f 36f
6:54am 2 5 mph 1011.7mb 35f 36f
6:48am 2 3 mph 1011.4mb 35f 36f
6:42am 2 3 mph 1011.3mb 35f 36f
6:36am 2 3 mph 1011.4mb 35f 36f
6:30am 1 2 mph 1010.8mb 35f 36f
6:24am 2 3 mph 1010.8mb 35f 36f
6:18am 2 5 mph 1010.8mb 35f 36f
6:12am 3 5 mph 1010.8mb 35f 36f
6:06am 2 5 mph 1011mb 35f 36f
6:00am 2 3 mph 1010.8mb 35f 36f
5:54am 2 3 mph 1010.1mb 35f 36f
5:48am 1 5 mph 1010mb 35f 36f
5:42am 2 6 mph 1010.1mb 35f 36f
5:36am 3 5 mph 1010.1mb 35f 36f
5:30am 2 5 mph 1010mb 35f 35f
5:24am 1 3 mph 1010mb 35f 35f
5:18am 1 3 mph 1009.9mb 35f 35f
5:12am  -  5 mph 1010mb 35f 35f
5:06am 2 5 mph 1009.8mb 35f 35f
5:00am 3 5 mph 1009.8mb 35f 35f
4:54am 1 2 mph 1010mb 35f 35f
4:48am 2
mph
1009.7mb 35f 35f
4:42am 1 2 mph 1009.7mb 35f 35f
4:36am 1 2 mph 1009.8mb 35f 35f
4:30am  -  2 mph 1009.5mb 35f 35f
4:24am  -  2 mph 1009.5mb 35f 35f
4:18am 2 5 mph 1009.4mb 35f 35f
4:12am 2 5 mph 1009.5mb 35f 34f
4:06am 2 7 mph 1009.6mb 35f 34f
4:00am 3 5 mph 1009.6mb 35f 34f
3:54am 2 5 mph 1009.5mb 35f 34f
3:48am 3 6 mph 1009.4mb 35f 34f
3:42am 3 6 mph 1009.2mb 35f 34f
3:36am 5 10 mph 1009.2mb 35f 34f
3:30am 13 16 mph 1008.3mb 34f 34f
3:24am 9 13 mph 1008.8mb 34f 34f
3:18am 6 8 mph 1009.2mb 34f 35f
3:12am 3 8 mph 1009.9mb 34f 34f
3:06am 6 8 mph 1010.4mb 34f 34f
3:00am 6 9 mph 1010.5mb 34f 34f
2:54am 8 10 mph 1010.5mb 34f 34f
2:48am 7 13 mph 1010.5mb 34f 34f
2:42am 7 11 mph 1010.5mb 34f 34f
2:36am 2 8 mph 1010.3mb 34f 34f
2:30am  -  mph 1010mb 34f 35f
2:24am  -  mph 1010mb 34f 34f
2:18am  -  mph 1010.2mb 34f 34f
2:12am  -  mph 1009.8mb 34f 33f
2:06am  -  mph 1009.6mb 34f 33f
2:00am  -  mph 1009.9mb 34f 33f
1:54am  -  mph 1009.9mb 34f 33f
1:48am  -  mph 1009.9mb 34f 33f
1:42am  -  mph 1009.8mb 34f 33f
1:36am  -  mph 1009.7mb 34f 33f
1:30am  -  mph 1009.8mb 34f 33f
1:24am  -  mph 1010mb 34f 34f
1:18am  -  mph 1010.2mb 34f 34f
1:12am  -  mph 1010.1mb 34f 34f
1:06am  -  mph 1010.2mb 34f 34f
1:00am  -  mph 1010.4mb 34f 34f
12:54am  -  mph 1010.4mb 34f 34f
12:48am  -  mph 1010.6mb 34f 34f
12:42am  -  mph 1010.7mb 34f 34f
12:36am  -  mph 1010.9mb 34f 34f
12:30am  -  mph 1010.9mb 34f 34f
12:24am  -  mph 1011.1mb 34f 34f
12:18am  -  mph 1011.2mb 34f 34f
12:12am  -  mph 1011.3mb 34f 34f
12:06am  -  mph 1011.4mb 34f 34f
12:00am  -  mph 1011.5mb 34f 34f
Tue 03/03 11:54pm  -  mph 1011.6mb 34f 34f
11:48pm  -  mph 1011.7mb 34f 34f
11:42pm  -  mph 1011.8mb 34f 34f
11:36pm  -  mph 1011.9mb 34f 34f
11:30pm  -  mph 1012.1mb 34f 34f
11:24pm  -  mph 1012.3mb 34f 33f
11:18pm  -  mph 1012.3mb 34f 33f
11:12pm  -  mph 1012.4mb 34f 33f
11:06pm  -  mph 1012.8mb 34f 34f
11:00pm  -  mph 1012.5mb 34f 33f
10:54pm  -  mph 1012.9mb 34f 33f
10:48pm  -  mph 1013mb 34f 33f
10:42pm  -  mph 1013.1mb 34f 33f
10:36pm  -  mph 1013.4mb 34f 33f
10:30pm  -  mph 1013.2mb 34f 33f
10:24pm  -  mph 1013.3mb 34f 33f
10:18pm  -  mph 1013.5mb 34f 33f
10:12pm  -  mph 1013.8mb 34f 33f
10:06pm  -  mph 1013.8mb 34f 33f
10:00pm  -  mph 1013.9mb 34f 33f
9:54pm  -  mph 1014.2mb 34f 33f
9:48pm  -  mph 1014.4mb 34f 32f
9:42pm  -  mph 1014.4mb 34f 32f
9:36pm  -  mph 1014.6mb 34f 32f
9:30pm  -  mph 1014.9mb 34f 32f
9:24pm  -  mph 1014.7mb 34f 32f
9:18pm  -  1 mph 1014.9mb 34f 32f
9:12pm 1 2 mph 1015.2mb 34f 32f
9:06pm 1 2 mph 1015.1mb 34f 31f
9:00pm 1 2 mph 1015.5mb 34f 31f
8:54pm 1 2 mph 1015.7mb 34f 31f
8:48pm 1 2 mph 1015.8mb 34f 31f
8:42pm 2
mph
1015.7mb 34f 31f
8:36pm 1 2 mph 1016.2mb 34f 31f
8:30pm 2
mph
1016.3mb 34f 31f
8:24pm 2
mph
1016.5mb 35f 31f
8:18pm 2
mph
1016.8mb 35f 31f
8:12pm 2
mph
1016.7mb 35f 31f
8:06pm 1 2 mph 1017mb 35f 31f
8:00pm 2 3 mph 1017.1mb 35f 31f
7:54pm 2 3 mph 1017.2mb 35f 31f
7:48pm 2 3 mph 1017.5mb 35f 31f
7:42pm 2
mph
1017.7mb 35f 31f
7:36pm 2
mph
1017.8mb 35f 31f
7:30pm 2 3 mph 1017.8mb 35f 31f
7:24pm 2 3 mph 1018.3mb 35f 31f
7:18pm 2 3 mph 1018.7mb 35f 31f
7:12pm 2 3 mph 1018.7mb 35f 31f
7:06pm 2 3 mph 1018.8mb 35f 31f
7:00pm 2 3 mph 1019mb 35f 31f
6:54pm 2 3 mph 1018.9mb 35f 31f
6:48pm 3 5 mph 1019mb 35f 31f
6:42pm 2 3 mph 1019.2mb 35f 31f
6:36pm 3 5 mph 1019.2mb 35f 31f
6:30pm 3 6 mph 1019.1mb 35f 31f
6:24pm 3 5 mph 1019.8mb 35f 31f
6:18pm 3 5 mph 1019.8mb 35f 30f
6:12pm 3 6 mph 1020.1mb 35f 30f
6:06pm 3 7 mph 1019.8mb 35f 30f
6:00pm 3 6 mph 1020.1mb 35f 30f
5:54pm 3 6 mph 1020.1mb 35f 30f
5:48pm 5 6 mph 1020.3mb 35f 30f
5:42pm 5 7 mph 1020.4mb 35f 30f
5:36pm 6 7 mph 1020.4mb 35f 30f
5:30pm 5 7 mph 1020.5mb 35f 30f
5:24pm 5 7 mph 1020.6mb 35f 30f
5:18pm 6 9 mph 1020.8mb 36f 30f
5:12pm 6 8 mph 1020.9mb 36f 30f
5:06pm 6 9 mph 1021mb 36f 30f
5:00pm 6 10 mph 1021mb 36f 29f
4:54pm 6 8 mph 1021mb 36f 29f
4:48pm 6 8 mph 1021.2mb 36f 29f
4:42pm 7 10 mph 1021.2mb 36f 29f
4:36pm 6 9 mph 1021.1mb 36f 29f
4:30pm 7 10 mph 1021.5mb 36f 29f
4:24pm 7 9 mph 1021.9mb 36f 29f
4:18pm 5 8 mph 1022.4mb 36f 29f
4:12pm 6 8 mph 1022.5mb 36f 29f
4:06pm 8 11 mph 1022.3mb 36f 29f
4:00pm 6 9 mph 1022.7mb 36f 29f
3:54pm 6 9 mph 1023.2mb 36f 29f
3:48pm 6 10 mph 1023.3mb 36f 29f
3:42pm 7 9 mph 1023.5mb 36f 29f
3:36pm 9 13 mph 1023.4mb 36f 29f
3:30pm 8 11 mph 1023.5mb 35f 29f
3:24pm 7 13 mph 1023.7mb 36f 29f
3:18pm 7 11 mph 1024.1mb 35f 29f
3:12pm 5 10 mph 1024.3mb 35f 29f
3:06pm 9 11 mph 1024.4mb 35f 29f
3:00pm 9 14 mph 1024.2mb 35f 29f
2:54pm 8 13 mph 1024.3mb 34f 29f
2:48pm 6 13 mph 1024.6mb 34f 29f
2:42pm 10 14 mph 1024.7mb 35f 29f
2:36pm 7 10 mph 1025.2mb 35f 29f
2:30pm 8 13 mph 1025.3mb 34f 29f
2:24pm 6 13 mph 1025.4mb 34f 29f
2:18pm 6 10 mph 1025.7mb 34f 29f
2:12pm 6 10 mph 1026mb 34f 29f
2:06pm 6 11 mph 1026.1mb 34f 29f
2:00pm 8 15 mph 1025.9mb 34f 29f
1:54pm 9 15 mph 1025.7mb 34f 29f
1:48pm 9 11 mph 1025.4mb 34f 29f
1:42pm 9 16 mph 1025.4mb 34f 29f
1:36pm 10 16 mph 1025.7mb 34f 29f
1:30pm 9 14 mph 1025.8mb 34f 29f
1:24pm 9 13 mph 1025.8mb 34f 29f
1:18pm 9 14 mph 1026mb 34f 29f
1:12pm 9 14 mph 1026.7mb 34f 29f
1:06pm 9 13 mph 1026.9mb 34f 29f
1:00pm 8 13 mph 1027mb 34f 29f
12:54pm 8 13 mph 1027.3mb 34f 29f
12:48pm 8 13 mph 1027.6mb 34f 29f
12:42pm 9 14 mph 1027.8mb 34f 29f
12:36pm 8 14 mph 1027.9mb 34f 29f
12:30pm 7 11 mph 1028.2mb 34f 29f
12:24pm 7 13 mph 1028.5mb 34f 29f
12:18pm 8 11 mph 1028.7mb 34f 29f
12:12pm 6 13 mph 1028.9mb 34f 29f
12:06pm 6 10 mph 1029.1mb 34f 29f
12:00pm 8 14 mph 1029.3mb 34f 29f
11:54am 8 13 mph 1029.2mb 34f 29f
11:48am 8 11 mph 1029.5mb 34f 30f
11:42am 7 14 mph 1029.4mb 34f 30f
11:36am 8 13 mph 1029.2mb 34f 30f
11:30am 7 10 mph 1029.3mb 34f -
11:24am 8 9 mph 1029.3mb 34f -
11:18am 7 10 mph - - 29f
11:12am 5 8 mph - - 29f
11:06am 5 9 mph - - 29f
11:00am  -  mph 1030mb 34f 29f
10:54am  -  mph 1029.9mb 34f 28f
10:48am 6 9 mph - 34f 29f
10:42am 6 7 mph - 34f 28f
10:36am 7 9 mph - 34f 28f
10:30am 5 6 mph - 34f 28f
10:24am 3 5 mph - 34f 28f
10:18am  -  mph 1030.8mb 34f 28f
10:12am  -  mph 1030.7mb 34f 28f
10:06am  -  mph 1030.6mb 34f 27f
10:00am 6 7 mph - - 27f
9:54am 5 6 mph - - 28f
9:48am 5 6 mph - - -
9:42am 5 6 mph - - -
9:36am 5 6 mph - - -
9:30am  -  mph - - 27f
9:24am  -  mph - - 27f
9:18am 3 6 mph - 34f -
9:12am 5 6 mph - 34f -
9:06am 3 6 mph - 34f -
9:00am  -  mph 1031.7mb - 27f
8:54am  -  mph 1031.7mb - 27f
8:48am 3 6 mph - - 27f
8:42am 5 7 mph - - 27f
8:36am 3 6 mph - - 27f
8:30am  -  mph - 34f -
8:24am  -  mph - 34f -
8:18am 1 6 mph 1030.9mb - 27f
8:12am  -  9 mph 1030.7mb - 27f
8:06am 6 11 mph 1030.6mb - 27f
8:00am 3 9 mph - 34f -
7:54am 5 9 mph - 34f -
7:48am  -  mph 1031.2mb 34f -
7:42am  -  mph 1031.4mb 34f -
7:36am  -  mph 1031.4mb 34f -
7:30am  -  mph 1031.5mb - 26f
7:24am  -  mph 1031.4mb - 26f
7:18am  -  mph 1031.4mb - 26f
7:12am  -  mph 1031.2mb - 27f
7:06am  -  mph 1031.2mb - 26f
7:00am 2 5 mph 1031.2mb 34f 26f
6:54am 1 7 mph 1031.2mb 34f 26f
6:48am 1 5 mph - 34f -
6:42am 1 7 mph - 34f -
6:36am 3 6 mph - 34f -
6:30am  -  6 mph 1031mb 34f -
6:24am  -  5 mph 1031.1mb 34f -
6:18am  -  mph 1031.2mb 34f 26f
6:12am  -  mph 1031mb 34f 26f
6:06am  -  mph 1031.2mb 34f 26f
6:00am  -  mph 1031mb 34f 26f
5:54am  -  mph 1030.5mb 34f 26f
5:48am 2 9 mph - - -
5:42am 5 7 mph - - -
5:36am 2 5 mph - - -
5:30am  -  mph 1030.5mb 34f -
5:24am  -  mph 1030.9mb 34f -
5:18am 2 6 mph - 34f 27f
5:12am 2 7 mph - 34f 27f
5:06am 2 7 mph - 34f 27f
5:00am 2 8 mph 1030.4mb 34f -
4:54am 5 9 mph 1030.3mb 35f -
4:48am  -  mph 1030.6mb 35f -
4:42am  -  mph 1030.6mb 35f -
4:36am  -  mph 1030.7mb 35f -
4:30am 3 7 mph 1030.6mb - 27f
4:24am 2 6 mph 1030.4mb - 27f
4:18am  -  mph - - 27f
4:12am  -  mph - - 27f
4:06am  -  mph - - 28f
4:00am  -  mph 1030mb 36f 28f
3:54am  -  mph 1029.9mb 36f 27f
3:48am 2 5 mph 1029.7mb - 28f
3:42am 2 5 mph 1029.8mb - 28f
3:36am 3 7 mph 1029.7mb - 29f
3:30am 5 8 mph 1029.8mb - 29f
3:24am 5 7 mph 1029.8mb - 29f
3:18am  -  mph - 36f 28f
3:12am  -  mph - 35f 28f
3:06am  -  mph - 34f 28f
3:00am 8
mph
1029.6mb - 28f
2:54am 7 9 mph 1029.6mb - 28f
2:48am 8 9 mph 1029.6mb 34f 29f
2:42am 7 9 mph 1029.4mb 34f 29f
2:36am 6
mph
1029.4mb 34f 28f
2:30am 6 7 mph 1029.5mb - 28f
2:24am 5 7 mph 1029.5mb - 28f
2:18am  -  mph - - 28f
2:12am  -  mph - - 28f
2:06am  -  mph - - 28f
2:00am 6 8 mph - - -
1:54am 6 8 mph - - -
1:48am 6 8 mph 1029.8mb - 29f
1:42am 7 10 mph 1029.8mb - 29f
1:36am 7 11 mph 1029.9mb - 29f
1:30am 7 10 mph 1030mb - 29f
1:24am 8 11 mph 1029.8mb - 29f
1:18am 7 9 mph - - 29f
1:12am 9 13 mph - - 29f
1:06am 7 11 mph - - 29f
1:00am  -  mph - 34f 29f
12:54am  -  mph - 34f 29f
12:48am  -  mph - 34f 30f
12:42am  -  mph - 34f 30f
12:36am  -  mph - 34f 30f
12:30am  -  mph 1029.6mb - -
12:24am  -  mph 1029.6mb - -
12:18am  -  mph 1029.4mb 34f 30f
12:12am  -  mph 1029.3mb 34f 30f
12:06am  -  mph 1029.4mb 34f 31f
12:00am  -  mph 1029.3mb - -
Mon 03/02 11:54pm  -  mph 1029.4mb - -
11:48pm  -  mph - 34f 31f
11:42pm  -  mph - 34f 31f
11:36pm  -  mph - 34f 31f
11:30pm  -  mph 1029.4mb 34f 31f
11:24pm  -  mph 1029.3mb 34f 31f
11:18pm  -  mph 1029.1mb - 31f
11:12pm  -  mph 1029.1mb - 31f
11:06pm  -  mph 1029.3mb - 31f
11:00pm 6 8 mph 1029.1mb 34f 31f
10:54pm 6 8 mph 1029.3mb 34f 31f
10:48pm  -  mph - 34f -
10:42pm  -  mph - 34f -
10:36pm  -  mph - 34f -
10:30pm 8 11 mph 1029.3mb - 31f
10:24pm 8 11 mph 1029.2mb - 31f
10:18pm  -  mph - 34f -
10:12pm  -  mph - 34f -
10:06pm  -  mph - 34f -
10:00pm  -  mph 1028.9mb 34f 32f
9:54pm  -  mph 1028.6mb 34f 32f
9:48pm 7 13 mph - 34f -
9:42pm 10 15 mph - 34f -
9:36pm 6 9 mph - 34f -
9:30pm  -  mph - 34f -
9:24pm  -  mph - 34f -
9:18pm  -  mph - 34f -
9:12pm  -  mph - 34f -
9:06pm  -  mph - 34f -
9:00pm 6 13 mph 1028.4mb 34f 33f
8:54pm 9 14 mph 1028.4mb 34f 33f
8:48pm  -  mph - 34f 33f
8:42pm  -  mph - 34f 33f
8:36pm  -  mph - 34f 33f
8:30pm  -  mph - 34f 33f
8:24pm  -  mph - 34f 33f
8:18pm  -  mph 1028.1mb 34f 33f
8:12pm  -  mph 1028.1mb 34f 33f
8:06pm  -  mph 1028mb 34f 34f
8:00pm 10 16 mph 1027.9mb 34f -
7:54pm 11 17 mph 1027.8mb 34f -
7:48pm 9 11 mph - 34f -
7:42pm 6 9 mph - 34f -
7:36pm 6 14 mph - 34f -
7:30pm  -  mph 1027.7mb 34f -
7:24pm  -  mph 1027.6mb 34f -
7:18pm  -  mph 1027.4mb - 34f
7:12pm  -  mph 1027.4mb - 34f
7:06pm  -  mph 1027.5mb - 34f
7:00pm 11 20 mph - 34f -
6:54pm 14 21 mph - 34f -
6:48pm 14 18 mph - 34f -
6:42pm 9 13 mph - 34f -
6:36pm 9 13 mph - 34f -
6:30pm 9 15 mph - 34f 35f
6:24pm 9 14 mph - 34f 35f
6:18pm 8 16 mph 1026.8mb 34f 35f
6:12pm 13 21 mph 1026.5mb 35f 36f
6:06pm 14 18 mph 1026.3mb 35f 35f
6:00pm 15 25 mph 1026.1mb 35f 36f
5:54pm 11 16 mph 1026.1mb 35f 36f
5:48pm 11 17 mph 1026.1mb 35f 36f
5:42pm 15 20 mph 1026mb 35f 36f
5:36pm 15 24 mph 1025.7mb 35f 36f
5:30pm 17 25 mph 1025.5mb 35f 37f
5:24pm 16 23 mph 1025.3mb 35f 37f
5:18pm 18 25 mph 1025.4mb 36f 37f
5:12pm 16 23 mph 1025.4mb 36f 37f
5:06pm 15 22 mph 1025.5mb 37f 37f
5:00pm 14 20 mph 1025.6mb 36f 37f
4:54pm 15 20 mph 1025.6mb 36f 37f
4:48pm 13 22 mph 1025.4mb 36f 38f
4:42pm 14 20 mph 1025.3mb 36f 38f
4:36pm 14 23 mph 1025.1mb 36f 38f
4:30pm 15 25 mph 1025mb 36f 38f
4:24pm 16 29 mph 1024.9mb 37f 38f
4:18pm 20 28 mph 1024.8mb 37f 38f
4:12pm 18 25 mph 1024.9mb 37f 38f
4:06pm 18 26 mph 1024.8mb 37f 38f
4:00pm 17 23 mph 1024.7mb 37f 38f
3:54pm 18 25 mph 1024.7mb 37f 38f
3:48pm 18 25 mph 1024.5mb 37f 38f
3:42pm 17 22 mph 1024.5mb 37f 38f
3:36pm 16 25 mph 1024.4mb 37f 38f
3:30pm 20 28 mph 1024.3mb 37f 38f
3:24pm 20 29 mph 1024.2mb 37f 38f
3:18pm 20 30 mph 1024.2mb 38f 38f
3:12pm 18 25 mph 1024.3mb 37f 38f
3:06pm 20 24 mph 1024.3mb 38f 38f
3:00pm 16 25 mph 1024.2mb 39f 38f
2:54pm 16 24 mph 1024mb 39f 38f
2:48pm 16 23 mph 1024mb 39f 38f
2:42pm 16 25 mph 1023.9mb 38f 37f
2:36pm 23 28 mph 1023.8mb 36f 37f
2:30pm 15 23 mph 1024mb 36f 37f
2:24pm 15 24 mph 1023.9mb 36f 37f
2:18pm 18 25 mph 1024mb 36f 37f
2:12pm 14 26 mph 1024mb 36f 37f
2:06pm 22 28 mph 1023.9mb 36f 36f
2:00pm 16 24 mph 1024mb 36f 37f
1:54pm 14 23 mph 1023.8mb 36f 37f
1:48pm 17 24 mph 1023.8mb 36f 36f
1:42pm 17 25 mph 1023.6mb 36f 37f
1:36pm 20 29 mph 1023.7mb 36f 36f
1:30pm 22 29 mph 1023.7mb 35f 36f
1:24pm 21 29 mph 1023.8mb 35f 36f
1:18pm 21 28 mph 1023.9mb 35f 36f
1:12pm 24 34 mph 1024mb 35f 36f
1:06pm 21 30 mph 1024mb 35f 36f
1:00pm 17 28 mph 1024.2mb 35f 36f
12:54pm 16 24 mph 1024.3mb 35f 36f
12:48pm 18 24 mph 1024.4mb 35f 36f
12:42pm 18 30 mph 1024.5mb 35f 35f
12:36pm 22 28 mph 1024.4mb 34f 35f
12:30pm 20 28 mph 1024.4mb 34f 35f
12:24pm 16 23 mph 1024.4mb 34f 36f
12:18pm 20 23 mph 1024.3mb 34f 35f
12:12pm 17 24 mph 1024.3mb 34f 36f
12:06pm 20 30 mph 1024.2mb 34f 36f
12:00pm 20 25 mph 1024.3mb 34f 36f
11:54am 14 25 mph 1024.3mb 34f 36f
11:48am 15 23 mph 1024.3mb 34f 36f
11:42am 18 24 mph 1024.1mb 34f 36f
11:36am 17 25 mph 1024mb 34f 36f
11:30am 21 26 mph 1024mb 34f 36f
11:24am 17 29 mph 1023.9mb 33f 36f
11:18am 18 26 mph 1023.9mb 33f 36f
11:12am 17 29 mph 1023.9mb 33f 36f
11:06am 20 25 mph 1023.7mb 33f 36f
11:00am 23 30 mph 1023.6mb 33f 36f
10:54am 17 22 mph 1023.6mb 33f 36f
10:48am 16 23 mph 1023.6mb 33f 37f
10:42am 15 23 mph 1023.4mb 33f 37f
10:36am 16 25 mph 1023.3mb 33f 37f
10:30am 16 23 mph 1023.3mb 33f 37f
10:24am 10 17 mph 1023.5mb 33f 37f
10:18am 11 16 mph 1023.5mb 33f 37f
10:12am 11 16 mph 1023.6mb 33f 37f
10:06am  -  mph 1023.6mb 33f 37f
10:00am  -  mph 1023.6mb 33f 37f
9:54am  -  mph 1023.4mb 33f 37f
9:48am  -  mph 1023.3mb 33f 37f
9:42am  -  mph 1023.2mb 33f 36f
9:36am  -  mph 1023mb 33f 35f
9:30am  -  mph 1023mb 33f 35f
9:24am  -  mph 1023mb 33f 35f
9:18am  -  mph 1022.7mb 34f 35f
9:12am  -  mph 1022.4mb 34f 35f
9:06am  -  mph 1022.2mb 34f 35f
9:00am  -  mph 1022mb 34f 34f
8:54am  -  mph 1021.9mb 34f 34f
8:48am  -  mph 1021.8mb 34f 34f
8:42am  -  mph 1021.6mb 34f 34f
8:36am  -  mph 1021.5mb 34f 34f
8:30am  -  mph 1021.4mb 34f 34f
8:24am  -  mph 1021.2mb 34f 34f
8:18am  -  mph 1021.1mb 34f 33f
8:12am  -  mph 1021mb 34f 33f
8:06am  -  mph 1020.9mb 34f 33f
8:00am  -  mph 1020.7mb 34f 33f
7:54am  -  mph 1020.5mb 34f 33f
7:48am  -  mph 1020.4mb 34f 33f
7:42am  -  mph 1020.3mb 34f 33f
7:36am  -  mph 1020.2mb 34f 32f
7:30am  -  mph 1020.2mb 34f 32f
7:24am  -  mph 1020mb 34f 32f
7:18am  -  mph 1020mb 34f 32f
7:12am  -  mph 1019.9mb 34f 32f
7:06am  -  mph 1019.9mb 34f 32f
7:00am  -  mph 1019.7mb 34f 32f
6:54am  -  mph 1019.5mb 34f 32f
6:48am  -  mph 1019.6mb 34f 31f
6:42am  -  mph 1019.7mb 34f 32f
6:36am  -  mph 1019.7mb 34f 32f
6:30am  -  mph 1019.5mb 34f 31f
6:24am  -  mph 1019.6mb 34f 31f
6:18am  -  mph 1019.6mb 34f 31f
6:12am  -  mph 1019.4mb 34f 31f
6:06am  -  mph 1019.2mb 34f 31f
6:00am  -  mph 1019.1mb 34f 31f
5:54am  -  mph 1019.2mb 34f 31f
5:48am  -  mph 1019.3mb 34f 31f
5:42am  -  mph 1019.2mb 34f 31f
5:36am  -  mph 1019.1mb 34f 31f
5:30am  -  mph 1019.1mb 34f 31f
5:24am  -  mph 1019mb 34f 31f
5:18am  -  mph 1018.8mb 34f 31f
5:12am  -  mph 1018.7mb 35f 31f
5:06am  -  mph 1018.5mb 35f 31f
5:00am  -  mph 1018.2mb 35f 31f
4:54am  -  mph 1018.2mb 35f 31f
4:48am  -  mph 1018.2mb 35f 31f
4:42am  -  mph 1018.2mb 35f 31f
4:36am  -  mph 1018.3mb 35f 31f
4:30am  -  mph 1018.2mb 35f 31f
4:24am  -  mph 1018.4mb 35f 31f
4:18am  -  mph 1018.4mb 35f 31f
4:12am  -  mph 1018.5mb 35f 31f
4:06am  -  mph 1018.7mb 35f 31f
4:00am  -  mph 1018.8mb 35f 31f
3:54am  -  mph 1018.7mb 35f 31f
3:48am  -  mph 1018.7mb 35f 31f
3:42am  -  mph 1018.8mb 35f 31f
3:36am  -  mph 1018.8mb 35f 31f
3:30am  -  mph 1018.9mb 35f 31f
3:24am  -  mph 1019mb 35f 31f
3:18am  -  mph 1019.2mb 35f 31f
3:12am  -  mph 1019.7mb 34f 31f
3:06am  -  mph 1019.5mb 34f 31f
3:00am  -  mph 1019.4mb 34f 31f
2:54am  -  mph 1019.4mb 34f 31f
2:48am  -  mph 1019.3mb 34f 31f
2:42am  -  mph 1019.3mb 34f 31f
2:36am  -  mph 1019.5mb 34f 31f
2:30am  -  mph 1019.8mb 34f 31f
2:24am  -  mph 1019.7mb 34f 31f
2:18am  -  mph 1019.7mb 34f 31f
2:12am  -  mph 1020mb 34f 31f
2:06am  -  mph 1020.2mb 34f 31f
2:00am  -  mph 1020.2mb 35f 31f
1:54am  -  mph 1020.5mb 35f 31f
1:48am  -  mph 1020.4mb 34f 31f
1:42am  -  mph 1020.6mb 33f 31f
1:36am  -  mph 1020.6mb 33f 31f
1:30am  -  mph 1020.7mb 33f 31f
1:24am  -  mph 1020.8mb 33f 31f
1:18am  -  mph - 33f 31f
1:12am  -  mph - 33f 31f
1:06am  -  mph - 33f 31f
1:00am  -  mph 1020.6mb 33f 31f
12:54am  -  mph 1020.7mb 33f 31f
12:48am  -  mph 1021.1mb 33f 31f
12:42am  -  mph 1021.2mb 33f 31f
12:36am  -  mph 1021.2mb 33f 31f
12:30am  -  mph 1021.2mb 33f 31f
12:24am  -  mph 1021.6mb 33f 31f
12:18am  -  mph 1021.8mb 33f 31f
12:12am  -  mph 1021.7mb 33f 31f
12:06am  -  mph 1021.6mb 33f 31f
12:00am  -  mph 1021.9mb 33f 31f
Sun 03/01 11:54pm  -  mph 1022mb 33f 31f
11:48pm  -  mph 1022mb 33f 31f
11:42pm  -  mph 1022.3mb 33f 31f
11:36pm  -  mph 1022.2mb 33f 31f
11:30pm  -  mph 1022.2mb 33f 31f
11:24pm  -  mph 1022.2mb 33f 31f
11:18pm  -  mph 1022.4mb 33f 31f
11:12pm  -  mph 1022.3mb 33f 31f
11:06pm  -  mph 1022.4mb 33f 31f
11:00pm  -  mph 1022.7mb 33f 31f
10:54pm  -  mph 1022.8mb 33f 31f
10:48pm  -  mph 1022.9mb 33f 31f
10:42pm  -  mph 1023.1mb 33f 31f
10:36pm  -  mph 1023.2mb 33f 31f
10:30pm  -  mph 1023.3mb 33f 31f
10:24pm  -  mph 1023.3mb 33f 31f
10:18pm  -  mph 1023.4mb 33f 31f
10:12pm  -  mph 1023.5mb 33f 31f
10:06pm  -  mph 1023.2mb 33f 31f
10:00pm  -  mph 1023.5mb 33f 31f
9:54pm  -  mph 1023.5mb 33f 31f
9:48pm  -  mph 1023.3mb 33f 31f
9:42pm  -  mph 1023.6mb 33f 31f
9:36pm  -  mph 1023.6mb 33f 31f
9:30pm  -  mph 1023.6mb 33f 31f
9:24pm  -  mph 1024mb 33f 31f
9:18pm  -  mph 1024.3mb 33f 31f
9:12pm  -  mph 1024.2mb 33f 31f
9:06pm  -  mph 1024.3mb 33f 31f
9:00pm  -  mph 1024.5mb 33f 31f
8:54pm  -  mph 1024.3mb 33f 31f
8:48pm  -  mph 1024.2mb 33f 31f
8:42pm  -  mph 1024.5mb 33f 31f
8:36pm  -  mph 1024.7mb 33f 31f
8:30pm  -  mph 1024.9mb 33f 31f
8:24pm  -  mph 1025mb 33f 31f
8:18pm  -  mph 1025.3mb 34f 31f
8:12pm  -  mph 1025.6mb 34f 31f
8:06pm  -  mph 1025.7mb 34f 31f
8:00pm  -  mph 1025.8mb 34f 31f
7:54pm  -  mph 1025.8mb 34f 31f
7:48pm  -  mph 1025.9mb 34f 31f
7:42pm  -  mph 1026mb 34f 31f
7:36pm  -  mph 1026mb 34f 30f
7:30pm  -  mph 1026mb 34f 30f
7:24pm  -  mph 1026mb 34f 30f
7:18pm  -  mph 1026.2mb 34f 30f
7:12pm  -  mph 1026.4mb 34f 30f
7:06pm  -  mph 1026.5mb 34f 30f
7:00pm  -  mph 1026.5mb 34f 30f
6:54pm  -  mph 1026.4mb 34f 30f
6:48pm  -  mph 1026.6mb 34f 30f
6:42pm  -  mph 1026.7mb 34f 30f
6:36pm  -  mph 1026.8mb 34f 30f
6:30pm  -  mph 1026.8mb 34f 30f
6:24pm  -  mph 1027.1mb 34f 30f
6:18pm  -  mph 1027.2mb 34f 30f
6:12pm  -  mph 1027.4mb 34f 30f
6:06pm  -  mph 1027.4mb 34f 29f
6:00pm  -  mph 1027.3mb 34f 29f
5:54pm  -  mph 1027.4mb 34f 29f
5:48pm 3 5 mph 1027.5mb 34f 29f
5:42pm 2 5 mph 1027.8mb 34f 29f
5:36pm 3 5 mph 1027.9mb 34f 29f
5:30pm 3 5 mph 1027.9mb 34f 29f
5:24pm 2 3 mph 1028mb 34f 29f
5:18pm 3 5 mph 1028.2mb 34f 29f
5:12pm 3 5 mph 1028.2mb 34f 29f
5:06pm 2 5 mph 1028.2mb 34f 29f
5:00pm 2 7 mph 1028.3mb 34f 29f
4:54pm 5 7 mph 1028.4mb 34f 29f
4:48pm 3 5 mph 1028.5mb 34f 29f
4:42pm 3 7 mph 1028.5mb 34f 29f
4:36pm 3 7 mph 1028.7mb 34f 29f
4:30pm 3 6 mph 1028.8mb 34f 29f
4:24pm 5 6 mph 1029mb 34f 29f
4:18pm 3 6 mph 1029.2mb 34f 29f
4:12pm 2 5 mph 1029.6mb 34f 28f
4:06pm 5 6 mph 1029.8mb 34f 28f
4:00pm 3 6 mph 1029.9mb 34f 28f
3:54pm 3 6 mph 1030.1mb 34f 28f
3:48pm 3 6 mph 1030.2mb 34f 28f
3:42pm 6 7 mph 1030.2mb 34f 28f
3:36pm 5 6 mph 1030.2mb 34f 28f
3:30pm 3 8 mph 1030.3mb 34f 28f
3:24pm 5 7 mph 1030.4mb 34f 28f